Time;durP1;ratioP1;P1;durP2;ratioP2;P2;SDS_P1;SDS_P2;PMS_P1;PMS_P2;Temp;Humidity;BMP_temperature;BMP_pressure;BME280_temperature;BME280_humidity;BME280_pressure;Samples;Min_cycle;Max_cycle;Signal;HPM_P1;HPM_P2
2022/01/13 00:00:55;;;;;;;4.75;1.92;;;;;;;12.46;31.88;97909.63;5095689;28;20016;-31
2022/01/13 00:03:20;;;;;;;4.00;1.80;;;;;;;12.43;31.77;97904.97;5095840;28;20122;-31
2022/01/13 00:05:46;;;;;;;2.60;1.92;;;;;;;12.37;32.02;97901.13;5095558;28;20031;-31
2022/01/13 00:08:11;;;;;;;2.65;1.67;;;;;;;12.41;31.75;97905.38;5095740;28;20023;-31
2022/01/13 00:10:37;;;;;;;3.20;1.75;;;;;;;12.13;32.31;97911.03;5095485;28;20101;-31
2022/01/13 00:13:06;;;;;;;4.00;1.55;;;;;;;12.23;32.04;97912.91;5095542;28;20060;-31
2022/01/13 00:16:23;;;;;;;3.13;1.58;;;;;;;12.18;32.31;97905.19;5095375;28;20081;-32
2022/01/13 00:19:06;;;;;;;3.97;1.98;;;;;;;12.34;31.90;97913.59;5095117;28;20030;-31
2022/01/13 00:26:22;;;;;;;3.25;1.73;;;;;;;12.40;31.93;97903.81;5095244;28;20020;-31
2022/01/13 00:28:51;;;;;;;4.53;2.22;;;;;;;12.41;31.83;97913.53;5094531;28;20358;-31
2022/01/13 00:31:23;;;;;;;4.75;1.85;;;;;;;12.47;31.63;97909.22;5094780;28;20371;-32
2022/01/13 00:33:51;;;;;;;3.83;1.75;;;;;;;12.47;32.07;97908.44;5093929;28;20028;-31
2022/01/13 00:36:17;;;;;;;2.15;1.60;;;;;;;12.42;31.78;97908.88;5095016;28;20023;-31
2022/01/13 00:38:42;;;;;;;2.92;1.75;;;;;;;12.31;31.78;97902.75;5094850;28;20024;-31
2022/01/13 00:41:08;;;;;;;3.28;1.40;;;;;;;12.31;31.54;97897.31;5094908;28;20613;-31
2022/01/13 00:43:38;;;;;;;3.55;1.92;;;;;;;12.31;31.89;97908.97;5095222;28;20390;-31
2022/01/13 00:46:04;;;;;;;3.97;1.80;;;;;;;12.32;31.85;97902.34;5094831;28;20110;-31
2022/01/13 00:48:29;;;;;;;3.88;2.03;;;;;;;12.29;31.67;97905.84;5095101;28;20097;-31
2022/01/13 00:50:55;;;;;;;2.78;1.58;;;;;;;12.30;31.91;97907.41;5095013;28;20031;-31
2022/01/13 00:53:20;;;;;;;5.25;1.88;;;;;;;12.32;31.84;97910.50;5094477;28;20390;-31
2022/01/13 00:55:57;;;;;;;3.30;1.70;;;;;;;12.38;31.74;97903.44;5094630;28;20527;-31
2022/01/13 00:58:25;;;;;;;5.53;1.63;;;;;;;12.45;31.63;97903.41;5094821;28;20031;-31
2022/01/13 01:00:51;;;;;;;4.72;1.80;;;;;;;12.35;31.41;97912.44;5093270;28;20024;-31
2022/01/13 01:03:16;;;;;;;3.30;2.20;;;;;;;12.35;31.39;97912.44;5094529;28;20031;-31
2022/01/13 01:05:42;;;;;;;2.85;1.40;;;;;;;12.33;31.89;97905.84;5094419;28;20462;-31
2022/01/13 01:08:09;;;;;;;4.20;1.90;;;;;;;12.42;31.63;97904.19;5094198;28;20024;-31
2022/01/13 01:10:35;;;;;;;3.60;1.88;;;;;;;11.95;32.30;97913.13;5094531;28;20466;-31
2022/01/13 01:13:10;;;;;;;4.53;1.50;;;;;;;12.14;31.61;97904.41;5094366;28;20107;-31
2022/01/13 01:15:36;;;;;;;3.15;1.60;;;;;;;12.25;32.19;97905.09;5094391;28;20031;-31
2022/01/13 01:18:12;;;;;;;4.07;1.73;;;;;;;12.38;31.84;97900.72;5092937;28;20024;-31
2022/01/13 01:20:47;;;;;;;5.10;1.90;;;;;;;12.22;31.57;97903.22;5094062;28;20386;-31
2022/01/13 01:23:17;;;;;;;3.33;1.90;;;;;;;12.01;32.11;97900.63;5093031;28;20462;-31
2022/01/13 01:25:58;;;;;;;2.95;1.63;;;;;;;12.03;32.29;97895.56;5093882;28;20107;-31
2022/01/13 01:28:33;;;;;;;4.13;1.73;;;;;;;12.09;31.79;97907.59;5094187;28;20020;-31
2022/01/13 01:30:59;;;;;;;3.63;1.90;;;;;;;12.26;31.97;97906.66;5093805;28;20024;-31
2022/01/13 01:33:24;;;;;;;3.70;1.73;;;;;;;12.27;31.91;97908.19;5093940;28;20024;-31
2022/01/13 01:35:50;;;;;;;2.35;1.55;;;;;;;12.17;31.75;97901.69;5093953;28;20462;-31
2022/01/13 01:38:15;;;;;;;4.25;1.83;;;;;;;12.00;32.24;97915.41;5093812;28;20031;-31
2022/01/13 01:40:41;;;;;;;3.45;1.63;;;;;;;12.12;32.10;97912.19;5093564;28;20044;-31
2022/01/13 01:43:06;;;;;;;4.32;2.17;;;;;;;11.99;32.32;97916.59;5093857;28;20381;-31
2022/01/13 01:45:41;;;;;;;5.43;1.70;;;;;;;12.16;32.15;97919.16;5093899;28;20020;-32
2022/01/13 01:48:20;;;;;;;3.33;1.85;;;;;;;12.22;31.69;97916.81;5093735;28;20032;-31
2022/01/13 01:50:54;;;;;;;4.72;1.95;;;;;;;12.02;31.96;97918.50;5093615;28;20490;-31
2022/01/13 01:53:22;;;;;;;4.05;1.80;;;;;;;12.16;32.03;97919.16;5093626;28;20449;-32
2022/01/13 01:55:47;;;;;;;2.63;1.33;;;;;;;12.28;31.89;97917.91;5093454;28;20102;-31
2022/01/13 01:58:13;;;;;;;3.63;1.48;;;;;;;12.31;31.90;97919.06;5093472;28;20112;-31
2022/01/13 02:00:38;;;;;;;4.13;1.65;;;;;;;12.29;31.89;97915.97;5093480;28;20031;-32
2022/01/13 02:03:05;;;;;;;2.15;1.30;;;;;;;12.21;31.85;97926.16;5093646;28;20462;-31
2022/01/13 02:05:31;;;;;;;2.67;1.40;;;;;;;12.33;31.96;97933.81;5093897;28;20474;-31
2022/01/13 02:07:56;;;;;;;3.58;1.63;;;;;;;12.24;31.93;97930.75;5093035;28;20028;-31
2022/01/13 02:10:22;;;;;;;3.85;1.80;;;;;;;12.20;32.00;97936.25;5093432;28;20103;-31
2022/01/13 02:12:51;;;;;;;3.85;1.75;;;;;;;12.20;31.87;97930.03;5093321;28;20496;-31
2022/01/13 02:15:29;;;;;;;3.78;1.73;;;;;;;12.22;32.26;97927.69;5093483;28;20481;-32
2022/01/13 02:17:56;;;;;;;3.15;1.75;;;;;;;12.30;31.90;97928.41;5093034;28;20036;-31
2022/01/13 02:20:22;;;;;;;5.53;1.75;;;;;;;12.27;31.97;97932.69;5093268;28;20032;-32
2022/01/13 02:22:47;;;;;;;4.93;1.63;;;;;;;12.36;31.75;97926.81;5093256;28;20078;-32
2022/01/13 02:25:15;;;;;;;5.40;1.90;;;;;;;12.14;32.20;97926.94;5093023;28;20065;-32
2022/01/13 02:27:41;;;;;;;4.72;2.28;;;;;;;12.16;32.17;97924.63;5093292;28;20028;-31
2022/01/13 02:30:08;;;;;;;3.53;1.55;;;;;;;12.20;32.06;97919.94;5093313;28;20016;-31
2022/01/13 02:32:34;;;;;;;4.30;1.83;;;;;;;12.24;32.47;97919.88;5093086;28;20020;-31
2022/01/13 02:34:59;;;;;;;2.95;1.33;;;;;;;11.93;32.81;97915.47;5091896;28;20035;-31
2022/01/13 02:37:25;;;;;;;4.50;1.63;;;;;;;12.11;32.81;97924.28;5092911;28;20042;-31
2022/01/13 02:39:50;;;;;;;3.35;1.58;;;;;;;12.18;32.13;97924.22;5091978;28;20024;-31
2022/01/13 02:42:16;;;;;;;3.95;1.55;;;;;;;12.10;32.30;97925.44;5092972;28;20512;-31
2022/01/13 02:45:00;;;;;;;4.20;1.92;;;;;;;12.00;32.92;97929.00;5093028;28;20020;-31
2022/01/13 02:50:03;;;;;;;7.78;1.85;;;;;;;12.25;32.35;97924.16;5093102;28;20363;-31
2022/01/13 02:52:29;;;;;;;4.28;1.48;;;;;;;12.14;32.61;97929.66;5093648;28;20027;-30
2022/01/13 02:54:54;;;;;;;5.18;1.45;;;;;;;12.26;32.24;97928.41;5096974;28;20398;-31
2022/01/13 02:57:20;;;;;;;3.88;1.80;;;;;;;12.18;32.41;97916.06;5096945;28;20024;-30
2022/01/13 02:59:45;;;;;;;3.95;1.42;;;;;;;12.18;32.28;97921.50;5096955;28;20035;-31
2022/01/13 03:02:11;;;;;;;3.88;1.50;;;;;;;12.13;32.25;97913.75;5097045;28;20024;-31
2022/01/13 03:04:36;;;;;;;3.63;1.67;;;;;;;12.02;32.61;97924.72;5096984;28;20024;-32
2022/01/13 03:07:03;;;;;;;3.33;1.77;;;;;;;12.05;32.33;97913.03;5096889;28;20028;-31
2022/01/13 03:09:29;;;;;;;3.25;1.50;;;;;;;12.09;31.84;97913.03;5096884;28;20410;-31
2022/01/13 03:11:54;;;;;;;3.42;1.70;;;;;;;12.04;32.04;97921.59;5096983;28;20039;-31
2022/01/13 03:14:20;;;;;;;2.25;1.45;;;;;;;12.02;31.86;97926.66;5096568;28;20020;-31
2022/01/13 03:16:45;;;;;;;4.05;1.63;;;;;;;11.95;31.68;97907.69;5096663;28;20036;-31
2022/01/13 03:19:12;;;;;;;4.63;1.48;;;;;;;11.98;31.75;97917.78;5096653;28;20052;-31
2022/01/13 03:21:38;;;;;;;3.67;2.05;;;;;;;11.99;31.24;97911.16;5096576;28;20032;-31
2022/01/13 03:24:09;;;;;;;2.83;1.40;;;;;;;11.88;31.93;97914.69;5095147;28;20016;-31
2022/01/13 03:26:35;;;;;;;4.03;1.80;;;;;;;11.96;31.82;97923.59;5096483;28;20035;-32
2022/01/13 03:29:21;;;;;;;3.92;1.55;;;;;;;11.95;31.86;97926.72;5096464;28;20134;-31
2022/01/13 03:31:48;;;;;;;3.03;1.77;;;;;;;12.02;31.17;97919.28;5096379;28;20030;-31
2022/01/13 03:34:16;;;;;;;4.65;1.65;;;;;;;12.12;31.42;97923.06;5096228;28;20027;-31
2022/01/13 03:36:42;;;;;;;3.30;1.40;;;;;;;12.18;31.63;97921.50;5096295;28;20024;-31
2022/01/13 03:39:10;;;;;;;3.40;1.63;;;;;;;11.74;31.59;97917.50;5095996;28;20032;-31
2022/01/13 03:41:37;;;;;;;3.47;1.45;;;;;;;12.02;31.49;97913.06;5096186;28;20043;-31
2022/01/13 03:44:06;;;;;;;3.50;1.45;;;;;;;11.97;31.40;97908.84;5096418;28;20024;-31
2022/01/13 03:46:37;;;;;;;6.00;1.50;;;;;;;11.95;31.18;97910.41;5096149;28;20031;-31
2022/01/13 03:49:06;;;;;;;2.92;1.67;;;;;;;12.02;31.51;97907.63;5095908;28;20012;-31
2022/01/13 03:52:07;;;;;;;4.93;1.65;;;;;;;12.15;31.22;97919.56;5096133;28;20044;-31
2022/01/13 03:54:33;;;;;;;2.55;1.60;;;;;;;12.09;31.08;97913.78;5053181;28;20097;-31
2022/01/13 03:57:11;;;;;;;2.45;1.50;;;;;;;12.16;31.12;97912.97;5053501;28;20048;-30
2022/01/13 03:59:57;;;;;;;3.03;1.70;;;;;;;12.11;30.99;97916.13;5053408;28;20116;-31
2022/01/13 04:02:22;;;;;;;2.95;1.35;;;;;;;11.99;31.47;97916.59;5053457;28;20187;-31
2022/01/13 04:04:49;;;;;;;3.17;1.85;;;;;;;12.01;30.82;97917.72;5053161;28;20123;-31
2022/01/13 04:07:20;;;;;;;2.67;1.65;;;;;;;11.99;30.93;97916.59;5053220;28;20029;-31
2022/01/13 04:09:45;;;;;;;4.22;1.65;;;;;;;12.15;31.03;97916.84;5053328;28;20025;-31
2022/01/13 04:12:13;;;;;;;3.05;1.73;;;;;;;12.03;31.27;97920.03;5053489;28;20427;-31
2022/01/13 04:17:17;;;;;;;5.50;1.73;;;;;;;11.94;31.37;97915.06;5053171;28;20041;-31
2022/01/13 04:19:42;;;;;;;4.80;2.05;;;;;;;11.85;31.17;97920.97;5053066;28;20123;-31
2022/01/13 04:22:09;;;;;;;3.15;1.75;;;;;;;11.88;30.95;97922.84;5052997;28;20039;-31
2022/01/13 04:24:42;;;;;;;3.28;1.77;;;;;;;12.05;31.09;97917.72;5052997;28;20404;-31
2022/01/13 04:27:09;;;;;;;4.05;1.80;;;;;;;11.99;31.20;97919.31;5052967;28;20025;-31
2022/01/13 04:29:41;;;;;;;3.22;1.65;;;;;;;11.89;31.32;97915.47;5065275;28;20024;-31
2022/01/13 04:32:07;;;;;;;3.45;1.58;;;;;;;12.05;30.83;97901.38;5095357;28;20027;-31
2022/01/13 04:34:34;;;;;;;5.28;1.88;;;;;;;11.89;31.08;97915.47;5093752;28;20035;-31
2022/01/13 04:37:00;;;;;;;2.83;1.77;;;;;;;11.98;31.02;97926.69;5095180;28;20051;-31
2022/01/13 04:39:27;;;;;;;3.60;1.73;;;;;;;11.99;30.93;97922.78;5094795;28;20145;-31
2022/01/13 04:41:54;;;;;;;3.13;1.90;;;;;;;11.96;30.95;97918.16;5094046;28;20129;-31
2022/01/13 04:44:22;;;;;;;3.90;1.80;;;;;;;12.07;31.17;97915.38;5094865;28;20474;-31
2022/01/13 04:46:50;;;;;;;2.80;1.63;;;;;;;11.90;30.94;97908.88;5094818;28;20027;-30
2022/01/13 04:49:18;;;;;;;3.58;2.20;;;;;;;11.77;31.25;97914.00;5095030;28;20485;-31
2022/01/13 04:51:45;;;;;;;3.42;2.17;;;;;;;11.93;30.92;97920.91;5094785;28;20032;-31
2022/01/13 04:54:11;;;;;;;3.38;1.88;;;;;;;11.67;31.26;97912.09;5093130;28;20433;-30
2022/01/13 04:57:05;;;;;;;3.25;2.08;;;;;;;11.84;31.31;97900.38;5094679;28;20031;-31
2022/01/13 04:59:29;;;;;;;3.20;1.65;;;;;;;11.92;31.11;97922.06;5094582;28;20023;-31
2022/01/13 05:01:54;;;;;;;3.47;2.20;;;;;;;11.83;31.12;97926.00;5094653;28;20351;-31
2022/01/13 05:04:21;;;;;;;3.95;1.70;;;;;;;11.66;31.33;97921.41;5094464;28;20026;-30
2022/01/13 05:06:46;;;;;;;3.83;1.83;;;;;;;11.77;31.08;97924.88;5094645;28;20398;-31
2022/01/13 05:09:12;;;;;;;4.65;2.40;;;;;;;11.76;31.19;97945.06;5094559;28;20095;-32
2022/01/13 05:11:37;;;;;;;4.60;1.92;;;;;;;11.76;30.93;97942.34;5094281;28;20020;-32
2022/01/13 05:14:03;;;;;;;3.72;2.03;;;;;;;11.96;30.85;97950.00;5094279;28;20440;-31
2022/01/13 05:16:36;;;;;;;4.38;1.80;;;;;;;11.86;31.11;97952.41;5093692;28;20016;-31
2022/01/13 05:24:14;;;;;;;3.95;2.03;;;;;;;11.89;31.09;97967.13;5094464;28;20505;-31
2022/01/13 05:26:39;;;;;;;3.75;2.20;;;;;;;12.06;30.73;97968.19;5092752;28;20490;-31
2022/01/13 05:29:05;;;;;;;4.53;1.70;;;;;;;11.91;30.98;97972.94;5094205;28;20118;-31
2022/01/13 05:31:30;;;;;;;2.85;1.60;;;;;;;11.98;30.63;97962.03;5093942;28;20390;-30
2022/01/13 05:33:56;;;;;;;6.22;1.85;;;;;;;11.91;31.18;97959.34;5093936;28;20040;-31
2022/01/13 05:36:21;;;;;;;5.32;2.17;;;;;;;12.01;30.96;97955.78;5094119;28;20359;-31
2022/01/13 05:38:48;;;;;;;3.35;2.10;;;;;;;12.05;30.79;97953.84;5093943;28;20035;-32
2022/01/13 05:41:13;;;;;;;5.32;1.95;;;;;;;12.08;30.93;97954.97;5093860;28;20020;-31
2022/01/13 05:43:39;;;;;;;3.33;1.75;;;;;;;12.04;30.65;97946.06;5093759;28;20020;-31
2022/01/13 05:46:05;;;;;;;3.13;1.70;;;;;;;12.07;30.89;97943.34;5093760;28;20020;-31
2022/01/13 05:48:31;;;;;;;4.18;2.15;;;;;;;11.86;30.97;97935.31;5093623;28;20024;-31
2022/01/13 05:50:57;;;;;;;4.70;1.92;;;;;;;12.00;31.18;97948.81;5093507;28;20529;-31
2022/01/13 05:53:22;;;;;;;3.22;2.60;;;;;;;11.88;30.80;97944.59;5093011;28;20071;-31
2022/01/13 05:55:48;;;;;;;4.50;2.17;;;;;;;11.87;31.06;97943.06;5092541;28;20397;-31
2022/01/13 05:58:13;;;;;;;3.30;1.90;;;;;;;11.94;30.69;97946.91;5090275;28;20054;-31
2022/01/13 06:00:39;;;;;;;3.22;1.85;;;;;;;11.86;31.01;97960.56;5090615;28;20028;-31
2022/01/13 06:03:05;;;;;;;3.75;2.08;;;;;;;11.85;31.23;97944.66;5090710;28;20016;-31
2022/01/13 06:05:31;;;;;;;4.57;2.05;;;;;;;11.87;31.24;97953.16;5090871;28;20792;-30
2022/01/13 06:07:57;;;;;;;3.67;2.40;;;;;;;11.88;30.91;97954.69;5090755;28;20103;-31
2022/01/13 06:10:23;;;;;;;5.03;2.22;;;;;;;11.81;31.07;97960.97;5090585;28;20111;-31
2022/01/13 06:12:50;;;;;;;4.10;2.60;;;;;;;11.86;31.26;97951.63;5090657;28;20027;-31
2022/01/13 06:15:19;;;;;;;5.45;1.90;;;;;;;11.82;30.52;97951.66;5090488;28;20039;-31
2022/01/13 06:17:46;;;;;;;3.70;2.22;;;;;;;11.88;31.03;97944.59;5090515;28;20478;-31
2022/01/13 06:20:13;;;;;;;4.90;2.30;;;;;;;11.84;30.85;97941.16;5090566;28;20405;-31
2022/01/13 06:22:40;;;;;;;5.05;2.50;;;;;;;11.91;30.95;97945.00;5090147;28;20028;-31
2022/01/13 06:25:07;;;;;;;5.95;2.90;;;;;;;11.94;30.68;97955.06;5090497;28;20050;-31
2022/01/13 06:27:33;;;;;;;5.75;2.95;;;;;;;11.82;31.01;97943.50;5089053;28;20043;-31
2022/01/13 06:29:59;;;;;;;4.85;2.45;;;;;;;11.77;31.18;97935.75;5090604;28;20063;-31
2022/01/13 06:32:24;;;;;;;3.97;2.13;;;;;;;11.79;31.36;97933.41;5090492;28;20032;-31
2022/01/13 06:34:51;;;;;;;6.35;2.67;;;;;;;11.66;31.41;97945.88;5088868;28;20039;-31
2022/01/13 06:37:18;;;;;;;5.78;2.83;;;;;;;11.73;31.51;97951.28;5090398;28;20032;-31
2022/01/13 06:39:44;;;;;;;5.35;2.40;;;;;;;11.80;31.10;97951.25;5088784;28;20056;-32
2022/01/13 06:42:09;;;;;;;5.85;2.50;;;;;;;11.61;31.20;97942.81;5088945;28;20062;-30
2022/01/13 06:44:35;;;;;;;4.65;2.63;;;;;;;11.53;31.09;97947.50;5090237;28;20032;-31
2022/01/13 06:47:02;;;;;;;5.22;2.58;;;;;;;11.84;31.35;97952.03;5089934;28;20035;-31
2022/01/13 06:49:27;;;;;;;4.75;2.20;;;;;;;11.90;30.77;97954.31;5090058;28;20027;-31
2022/01/13 06:51:52;;;;;;;4.55;2.17;;;;;;;11.60;31.37;97949.41;5090204;28;20035;-31
2022/01/13 06:54:18;;;;;;;4.15;2.25;;;;;;;11.78;31.24;97961.75;5048485;28;1195673;-31
2022/01/13 06:56:43;;;;;;;4.72;2.28;;;;;;;11.86;31.05;97955.13;5091111;28;20039;-31
2022/01/13 06:59:11;;;;;;;6.53;2.10;;;;;;;11.82;30.63;97965.25;5090674;28;20032;-31
2022/01/13 07:01:38;;;;;;;5.25;2.40;;;;;;;11.13;31.35;97968.59;5091092;28;20103;-31
2022/01/13 07:04:04;;;;;;;4.18;1.77;;;;;;;11.50;31.17;97959.13;5090880;28;20020;-31
2022/01/13 07:06:30;;;;;;;5.30;2.25;;;;;;;11.64;30.86;97975.38;5090908;28;20508;-31
2022/01/13 07:08:55;;;;;;;3.53;1.90;;;;;;;11.67;31.00;97985.47;5090807;28;20027;-31
2022/01/13 07:11:20;;;;;;;5.43;2.20;;;;;;;11.77;30.69;97978.47;5090820;28;20058;-31
2022/01/13 07:13:46;;;;;;;4.25;2.10;;;;;;;11.68;30.75;97987.03;5091062;28;20084;-32
2022/01/13 07:16:11;;;;;;;3.60;2.00;;;;;;;11.79;30.92;97987.00;5090806;28;20104;-31
2022/01/13 07:18:40;;;;;;;4.75;2.22;;;;;;;11.69;31.39;97985.06;5090747;28;20020;-31
2022/01/13 07:21:07;;;;;;;3.65;1.67;;;;;;;11.59;31.17;97983.97;5090448;28;20035;-31
2022/01/13 07:23:33;;;;;;;4.68;1.98;;;;;;;11.75;30.88;97984.28;5090712;28;20032;-31
2022/01/13 07:25:59;;;;;;;5.45;2.28;;;;;;;11.68;30.75;97988.97;5090725;28;20089;-31
2022/01/13 07:28:24;;;;;;;3.67;2.20;;;;;;;11.41;31.42;97983.25;5090721;28;20450;-32
2022/01/13 07:30:50;;;;;;;4.43;1.90;;;;;;;11.73;31.23;97985.84;5090624;28;20414;-31
2022/01/13 07:33:15;;;;;;;3.63;2.20;;;;;;;11.59;31.13;97989.41;5090457;28;20359;-31
2022/01/13 07:35:41;;;;;;;3.70;2.10;;;;;;;11.74;31.01;97996.31;5090427;28;20054;-31
2022/01/13 07:38:06;;;;;;;4.00;1.90;;;;;;;11.38;31.34;98000.31;5089184;28;20035;-31
2022/01/13 07:40:32;;;;;;;3.40;1.80;;;;;;;11.64;31.30;98013.44;5094230;28;20028;-31
2022/01/13 07:42:57;;;;;;;4.25;2.25;;;;;;;11.59;31.30;98002.22;5094107;28;20027;-31
2022/01/13 07:45:23;;;;;;;5.15;2.40;;;;;;;11.64;30.97;97999.84;5093893;28;20027;-31
2022/01/13 07:47:48;;;;;;;2.50;1.67;;;;;;;11.73;30.93;98005.66;5094163;28;20030;-31
2022/01/13 07:50:15;;;;;;;5.07;2.28;;;;;;;11.59;31.61;98000.25;5094136;28;20182;-32
2022/01/13 07:52:41;;;;;;;4.90;2.13;;;;;;;11.71;31.07;98013.41;5092502;28;20028;-31
2022/01/13 07:55:08;;;;;;;5.88;2.35;;;;;;;11.68;31.21;98016.13;5093839;28;20508;-31
2022/01/13 07:57:33;;;;;;;4.80;2.20;;;;;;;11.59;31.30;98023.94;5092555;28;20502;-31
2022/01/13 07:59:59;;;;;;;7.03;2.50;;;;;;;11.72;31.14;98034.00;5093439;28;20027;-31
2022/01/13 08:02:24;;;;;;;5.53;2.55;;;;;;;11.60;31.55;98028.22;5093502;28;20024;-31
2022/01/13 08:04:50;;;;;;;3.63;2.22;;;;;;;11.70;31.25;98033.59;5093426;28;20032;-31
2022/01/13 08:07:16;;;;;;;7.28;2.80;;;;;;;11.52;31.53;98035.59;5093547;28;20032;-31
2022/01/13 08:09:42;;;;;;;6.25;2.70;;;;;;;11.71;31.28;98056.91;5092927;28;20020;-31
2022/01/13 08:12:08;;;;;;;5.35;2.22;;;;;;;11.70;31.58;98063.50;5093385;28;20066;-31
2022/01/13 08:14:34;;;;;;;5.03;2.05;;;;;;;11.72;31.24;98066.59;5093670;28;20047;-31
2022/01/13 08:17:02;;;;;;;4.30;1.98;;;;;;;11.69;31.50;98070.09;5093597;28;20032;-31
2022/01/13 08:19:45;;;;;;;4.80;2.03;;;;;;;11.68;31.77;98067.78;5093405;28;20031;-34
2022/01/13 08:22:12;;;;;;;5.25;2.20;;;;;;;11.72;31.62;98084.84;5095378;28;20057;-33
2022/01/13 08:24:37;;;;;;;4.25;2.20;;;;;;;11.72;31.49;98084.84;5095113;28;20020;-33
2022/01/13 08:27:04;;;;;;;4.07;2.50;;;;;;;11.58;31.70;98101.97;5095163;28;20371;-31
2022/01/13 08:29:29;;;;;;;5.82;2.47;;;;;;;10.00;33.15;98112.28;5095209;28;20525;-31
2022/01/13 08:31:55;;;;;;;5.15;2.90;;;;;;;10.84;31.68;98112.91;5095173;28;20032;-31
2022/01/13 08:34:20;;;;;;;6.10;3.20;;;;;;;11.06;31.61;98109.78;5095088;28;20031;-31
2022/01/13 08:36:46;;;;;;;5.70;2.70;;;;;;;11.22;31.72;98122.97;5095271;28;20027;-31
2022/01/13 08:39:12;;;;;;;5.63;2.58;;;;;;;11.38;30.66;98117.13;5094927;28;20024;-30
2022/01/13 08:41:38;;;;;;;6.13;3.33;;;;;;;11.62;31.28;98124.47;5095071;28;20022;-31
2022/01/13 08:44:04;;;;;;;7.18;3.05;;;;;;;11.40;31.52;98122.94;5096105;28;20385;-31
2022/01/13 08:46:29;;;;;;;4.00;2.78;;;;;;;11.46;31.48;98124.13;5094932;28;20035;-31
2022/01/13 08:48:55;;;;;;;4.93;3.00;;;;;;;11.39;31.48;98122.16;5095014;28;20016;-31
2022/01/13 08:51:20;;;;;;;6.43;3.13;;;;;;;11.60;31.55;98118.66;5093571;28;20103;-31
2022/01/13 08:53:46;;;;;;;6.22;3.17;;;;;;;11.60;31.46;98120.59;5094360;28;20044;-31
2022/01/13 08:56:15;;;;;;;4.80;2.92;;;;;;;11.49;31.67;98115.19;5094649;28;20028;-30
2022/01/13 08:58:43;;;;;;;5.10;2.72;;;;;;;11.09;32.23;98119.09;5094654;28;20028;-32
2022/01/13 09:01:09;;;;;;;5.25;2.58;;;;;;;11.23;31.99;98121.03;5094509;28;20055;-32
2022/01/13 09:03:35;;;;;;;6.38;2.95;;;;;;;11.43;32.02;98122.19;5094524;28;20051;-31
2022/01/13 09:06:02;;;;;;;5.57;3.00;;;;;;;11.46;31.72;98111.31;5094435;28;20028;-31
2022/01/13 09:08:27;;;;;;;5.57;2.78;;;;;;;11.43;31.85;98111.31;5094407;28;20032;-31
2022/01/13 09:10:53;;;;;;;8.35;2.75;;;;;;;11.70;31.20;98114.38;5094448;28;20024;-32
2022/01/13 09:13:18;;;;;;;4.88;2.92;;;;;;;11.57;31.66;98105.84;5094336;28;20021;-31
2022/01/13 09:15:58;;;;;;;6.68;2.90;;;;;;;11.35;32.15;98099.69;5092768;28;20030;-30
2022/01/13 09:18:33;;;;;;;6.93;2.58;;;;;;;11.58;31.63;98082.94;5093719;28;20017;-31
2022/01/13 09:20:59;;;;;;;6.65;3.33;;;;;;;11.51;31.58;98093.81;5094263;28;20482;-31
2022/01/13 09:23:24;;;;;;;7.38;3.22;;;;;;;11.44;31.96;98112.88;5094211;28;20034;-31
2022/01/13 09:25:50;;;;;;;8.07;3.40;;;;;;;11.62;31.42;98119.03;5094354;28;20050;-31
2022/01/13 09:28:16;;;;;;;6.38;3.20;;;;;;;11.54;31.38;98112.06;5094115;28;20378;-31
2022/01/13 09:30:42;;;;;;;6.05;3.28;;;;;;;11.17;31.58;98115.22;5093728;28;20059;-31
2022/01/13 09:33:07;;;;;;;8.52;4.60;;;;;;;10.91;32.62;98121.81;5093818;28;20027;-31
2022/01/13 09:35:34;;;;;;;6.13;3.50;;;;;;;11.44;31.85;98124.50;5093909;28;20023;-32
2022/01/13 09:38:01;;;;;;;7.13;3.58;;;;;;;11.37;31.90;98134.63;5093445;28;20020;-31
2022/01/13 09:40:28;;;;;;;8.75;3.72;;;;;;;11.09;32.16;98130.75;5093831;28;20028;-31
2022/01/13 09:42:54;;;;;;;5.60;2.90;;;;;;;10.92;32.72;98126.06;5093562;28;20035;-31
2022/01/13 09:45:21;;;;;;;8.25;3.30;;;;;;;11.01;31.97;98129.16;5092156;28;20028;-32
2022/01/13 09:47:48;;;;;;;6.38;3.67;;;;;;;11.05;32.13;98146.25;5092882;28;20416;-31
2022/01/13 09:50:20;;;;;;;7.03;3.15;;;;;;;10.96;32.44;98120.66;5093462;28;20017;-31
2022/01/13 09:52:46;;;;;;;6.18;2.60;;;;;;;11.08;32.23;98121.03;5093684;28;20024;-31
2022/01/13 09:55:14;;;;;;;5.05;2.83;;;;;;;11.35;32.04;98126.84;5093421;28;20044;-31
2022/01/13 09:57:42;;;;;;;5.68;3.05;;;;;;;11.24;31.83;98136.19;5092419;28;20054;-31
2022/01/13 10:00:11;;;;;;;11.68;3.65;;;;;;;10.68;32.07;98133.03;5093501;28;20508;-31
2022/01/13 10:02:36;;;;;;;6.60;2.88;;;;;;;10.72;32.90;98138.47;5093483;28;20043;-31
2022/01/13 10:05:02;;;;;;;7.55;2.97;;;;;;;11.09;32.06;98147.03;5093441;28;20024;-31
2022/01/13 10:07:41;;;;;;;5.70;2.83;;;;;;;11.06;32.24;98142.38;5093391;28;20028;-31
2022/01/13 10:10:09;;;;;;;8.18;3.28;;;;;;;10.85;32.46;98138.88;5093570;28;20489;-31
2022/01/13 10:12:39;;;;;;;6.18;3.33;;;;;;;11.32;31.88;98124.13;5093288;28;20038;-31
2022/01/13 10:17:46;;;;;;;7.32;3.67;;;;;;;11.29;31.57;98122.19;5093657;28;20070;-31
2022/01/13 10:20:14;;;;;;;4.75;2.50;;;;;;;11.34;32.20;98114.44;5090379;28;20024;-30
2022/01/13 10:22:39;;;;;;;5.40;2.67;;;;;;;11.43;31.98;98106.66;5091638;28;20378;-31
2022/01/13 10:25:05;;;;;;;5.68;2.90;;;;;;;11.47;31.68;98112.09;5093458;28;20016;-31
2022/01/13 10:27:36;;;;;;;5.18;2.80;;;;;;;11.55;31.51;98119.03;5092985;28;20020;-31
2022/01/13 10:30:13;;;;;;;4.97;2.40;;;;;;;11.76;31.54;98116.31;5093428;28;20024;-31
2022/01/13 10:32:40;;;;;;;7.00;3.42;;;;;;;11.62;31.57;98112.84;5093174;28;20025;-32
2022/01/13 10:35:06;;;;;;;6.10;2.80;;;;;;;11.70;31.48;98120.56;5093107;28;20157;-31
2022/01/13 10:37:37;;;;;;;6.63;3.55;;;;;;;11.38;31.69;98125.28;5093122;28;20087;-31
2022/01/13 10:40:07;;;;;;;5.95;2.72;;;;;;;11.34;31.15;98125.31;5093048;28;20440;-32
2022/01/13 10:45:17;;;;;;;7.00;2.97;;;;;;;11.47;29.92;98095.78;5093451;28;20038;-31
2022/01/13 10:47:50;;;;;;;7.45;3.15;;;;;;;11.16;32.40;98111.72;5092996;28;20466;-30
2022/01/13 10:50:16;;;;;;;;;;;;;;;11.33;31.84;98106.69;5093640;28;20028;-31
2022/01/13 10:52:41;;;;;;;9.95;4.10;;;;;;;10.95;31.81;98109.03;5092971;28;19931;-31
2022/01/13 10:55:13;;;;;;;6.90;3.10;;;;;;;11.52;31.63;98109.72;5092857;28;20079;-31
2022/01/13 10:57:42;;;;;;;6.82;3.45;;;;;;;11.31;31.84;98103.56;5092996;28;20497;-31
2022/01/13 11:00:30;;;;;;;8.93;3.60;;;;;;;11.01;31.20;98106.69;5092917;28;20422;-31
2022/01/13 11:03:06;;;;;;;7.82;3.67;;;;;;;11.03;31.17;98121.41;5093004;28;20028;-31
2022/01/13 11:05:34;;;;;;;8.15;3.58;;;;;;;11.60;31.37;98134.97;5091560;28;20070;-31
2022/01/13 11:08:06;;;;;;;7.88;3.60;;;;;;;11.49;31.09;98126.06;5092834;28;20024;-31
2022/01/13 11:10:32;;;;;;;9.05;4.18;;;;;;;11.71;31.42;98116.69;5092773;28;20031;-31
2022/01/13 11:12:59;;;;;;;6.75;3.28;;;;;;;11.90;31.07;98123.63;5092676;28;20028;-31
2022/01/13 11:15:26;;;;;;;8.25;4.07;;;;;;;11.76;30.99;98137.28;5096643;28;20028;-31
2022/01/13 11:17:53;;;;;;;6.75;3.25;;;;;;;11.57;30.72;98133.03;5096508;28;20020;-31
2022/01/13 11:20:21;;;;;;;7.25;3.60;;;;;;;11.51;31.05;98140.00;5096407;28;20043;-31
2022/01/13 11:22:49;;;;;;;9.45;3.60;;;;;;;11.34;31.57;98125.31;5095304;28;20027;-31
2022/01/13 11:25:18;;;;;;;8.35;3.55;;;;;;;11.32;31.38;98111.31;5096537;28;20024;-31
2022/01/13 11:27:44;;;;;;;9.55;3.85;;;;;;;11.36;31.34;98106.69;5096656;28;20028;-31
2022/01/13 11:30:17;;;;;;;8.63;3.53;;;;;;;11.11;31.24;98117.56;5096232;28;20020;-31
2022/01/13 11:32:44;;;;;;;6.10;3.53;;;;;;;11.63;31.66;98125.22;5096501;28;20478;-30
2022/01/13 11:35:23;;;;;;;6.05;3.22;;;;;;;11.78;31.34;98121.34;5096328;28;20118;-31
2022/01/13 11:37:50;;;;;;;5.65;2.95;;;;;;;11.11;31.11;98123.00;5096198;28;20024;-31
2022/01/13 11:40:28;;;;;;;6.00;3.08;;;;;;;11.32;31.10;98126.84;5096503;28;20099;-31
2022/01/13 11:42:58;;;;;;;5.50;2.70;;;;;;;11.58;31.00;98128.38;5096063;28;20031;-30
2022/01/13 11:45:24;;;;;;;6.03;2.88;;;;;;;11.83;31.43;98129.88;5096207;28;20020;-31
2022/01/13 11:48:09;;;;;;;6.88;2.88;;;;;;;11.88;30.25;98125.97;5095972;28;20473;-31
2022/01/13 11:50:42;;;;;;;6.32;2.88;;;;;;;11.29;30.06;98128.41;5095973;28;20043;-30
2022/01/13 11:53:20;;;;;;;6.07;2.70;;;;;;;11.00;31.30;98124.91;5094491;28;20031;-31
2022/01/13 11:55:51;;;;;;;6.25;2.80;;;;;;;11.33;31.74;98122.97;5096054;28;20031;-31
2022/01/13 11:58:25;;;;;;;6.95;2.78;;;;;;;11.57;29.73;98111.28;5095801;28;20427;-31